Hovedside
METAR-TAF:

METAR-TAF

Lufthavner :

Ålesund, Norge

Ålesund lufthavn

breddegrad: 62-34N, lengdegrad: 006-07E, høyde over havet: 2 m

Gjeldene værobservasjon

Denne rapporten ble laget for 1 time og 16 minutter siden, klokken 09:50 UTC
Vind 12 kt fra Øst-nordøst
Temperatur 7°C
Luftfuktighet 61%
Trykk 1010 hPa
Sikt 10 km eller mer
Få skyer i en høyde av 6100 ft

METAR: ENAL 270950Z 06012KT 9999 FEW061 07/M00 Q1010

Tid: 13:06 (11:06 UTC)

Varsel

Denne rapporten ble laget for 3 timer og 6 minutter siden, klokken 08:00 UTC
Varsel gyldig fra 27. klokken 09 UTC til 27. klokken 18 UTC
Vind 8 kt fra Øst-nordøst
Sikt 10 km eller mer
Få skyer i en høyde av 2000 ft, Tårnskyer (cumulus).
Spredte skyer i en høyde av 5000 ft
lette regnbyger
Blir
fra 27. klokken 09 UTC til 27. klokken 11 UTC
Vind 18 kt fra Nord-nordøst

TAF: ENAL 270800Z 2709/2718 06008KT 9999 -SHRA FEW020TCU SCT050 BECMG 2709/2711 03018KT

Værobservasjoner og værvarsel for over 4000 flyplasser (METAR- og TAF-rapporter).

Tilgjengelige stasjoner er representert av de røde og gule prikkene på kartet.

Hold musepekeren over prikken for å se navnet på stasjonen.

Klikk så for å se værobservasjoner og -varsler.

For å forandre kartet kan du klikke på den grønne knappen med svart kryss for å zoome inn, på den grønne knappen med strek for å zoome ut, eller på de grønne pilene for å se tilstøtende kart.


METAR-TAF: